Time;durP1;ratioP1;P1;durP2;ratioP2;P2;SDS_P1;SDS_P2;PMS_P1;PMS_P2;Temp;Humidity;BMP_temperature;BMP_pressure;BME280_temperature;BME280_humidity;BME280_pressure;Samples;Min_cycle;Max_cycle;Signal;HPM_P1;HPM_P2
2022/12/14 00:00:29;;;;;;;19.67;12.13;;;0.00;99.90;;;;;;5046337;28;20271;-36
2022/12/14 00:02:55;;;;;;;17.37;12.73;;;0.10;99.90;;;;;;5048302;28;20660;-37
2022/12/14 00:05:20;;;;;;;16.30;12.33;;;0.10;99.90;;;;;;5048932;28;20439;-37
2022/12/14 00:07:46;;;;;;;26.00;12.47;;;0.00;99.90;;;;;;5047435;28;20201;-37
2022/12/14 00:10:12;;;;;;;16.73;12.20;;;0.10;99.90;;;;;;5048405;28;20214;-39
2022/12/14 00:12:37;;;;;;;14.63;10.90;;;0.10;99.90;;;;;;5047208;28;20185;-34
2022/12/14 00:15:04;;;;;;;14.23;10.73;;;0.20;99.90;;;;;;5048539;28;20211;-34
2022/12/14 00:17:29;;;;;;;14.07;10.30;;;0.20;99.90;;;;;;5048447;28;20177;-40
2022/12/14 00:19:55;;;;;;;14.87;10.40;;;0.10;99.90;;;;;;5048060;28;20977;-41
2022/12/14 00:22:20;;;;;;;15.50;10.57;;;0.30;99.90;;;;;;5048103;28;20649;-36
2022/12/14 00:24:46;;;;;;;16.43;10.30;;;0.20;99.90;;;;;;5048326;28;20255;-39
2022/12/14 00:27:12;;;;;;;15.97;10.47;;;0.10;99.90;;;;;;5048379;28;20185;-40
2022/12/14 00:29:38;;;;;;;12.70;8.90;;;0.20;99.90;;;;;;5047815;28;20194;-34
2022/12/14 00:32:04;;;;;;;13.23;9.90;;;0.40;99.90;;;;;;5048174;28;20792;-38
2022/12/14 00:34:30;;;;;;;12.03;9.10;;;0.20;99.90;;;;;;5048189;28;20182;-33
2022/12/14 00:36:56;;;;;;;12.23;8.73;;;0.50;99.90;;;;;;5048311;28;20416;-37
2022/12/14 00:39:22;;;;;;;12.30;8.30;;;0.20;99.90;;;;;;5047935;28;20419;-38
2022/12/14 00:41:47;;;;;;;17.20;9.00;;;0.50;99.90;;;;;;5048299;28;20220;-39
2022/12/14 00:44:14;;;;;;;11.20;8.60;;;0.30;99.90;;;;;;5047899;28;20186;-37
2022/12/14 00:46:39;;;;;;;11.93;8.30;;;0.40;99.90;;;;;;5048368;28;20189;-37
2022/12/14 00:49:05;;;;;;;10.70;8.47;;;0.30;99.90;;;;;;5047760;28;20417;-37
2022/12/14 00:51:31;;;;;;;12.20;8.77;;;0.30;99.90;;;;;;5046437;28;20228;-40
2022/12/14 00:53:56;;;;;;;14.10;8.90;;;0.10;99.90;;;;;;5047599;28;20213;-39
2022/12/14 00:56:22;;;;;;;12.03;8.57;;;0.30;99.90;;;;;;5046771;28;20252;-40
2022/12/14 00:58:52;;;;;;;11.30;8.90;;;0.30;99.90;;;;;;5047636;28;20277;-38
2022/12/14 01:01:18;;;;;;;10.70;7.80;;;0.30;99.90;;;;;;5048132;28;20177;-37
2022/12/14 01:03:44;;;;;;;11.57;8.87;;;0.50;99.90;;;;;;5047585;28;20590;-36
2022/12/14 01:06:15;;;;;;;11.23;8.73;;;0.50;99.90;;;;;;5047775;28;20446;-37
2022/12/14 01:08:41;;;;;;;11.60;8.07;;;0.30;99.90;;;;;;5048946;28;20177;-40
2022/12/14 01:11:08;;;;;;;9.90;7.73;;;0.30;99.90;;;;;;5048779;28;20575;-39
2022/12/14 01:13:34;;;;;;;12.40;8.00;;;0.50;99.90;;;;;;5050997;28;20435;-38
2022/12/14 01:16:09;;;;;;;13.87;9.83;;;0.30;99.90;;;;;;5048070;28;20974;-32
2022/12/14 01:18:36;;;;;;;11.77;7.50;;;0.50;99.90;;;;;;5050691;28;20493;-37
2022/12/14 01:21:17;;;;;;;11.80;8.10;;;0.60;99.90;;;;;;5050217;28;20724;-38
2022/12/14 01:23:45;;;;;;;11.67;8.33;;;0.50;99.90;;;;;;5051011;28;20511;-35
2022/12/14 01:26:15;;;;;;;12.93;8.60;;;0.50;99.90;;;;;;5051317;28;20753;-36
2022/12/14 01:28:42;;;;;;;12.10;8.27;;;0.20;99.90;;;;;;5050704;28;20778;-37
2022/12/14 01:31:15;;;;;;;9.13;7.07;;;0.40;99.90;;;;;;5050869;28;20459;-37
2022/12/14 01:33:41;;;;;;;13.40;8.10;;;0.20;99.90;;;;;;5051020;28;20405;-36
2022/12/14 01:36:10;;;;;;;10.77;8.10;;;0.30;99.90;;;;;;5051009;28;20416;-36
2022/12/14 01:38:36;;;;;;;13.20;9.00;;;0.10;99.90;;;;;;5050368;28;20412;-38
2022/12/14 01:41:03;;;;;;;11.97;8.90;;;0.20;99.90;;;;;;5050435;28;20770;-37
2022/12/14 01:43:52;;;;;;;11.50;8.00;;;0.40;99.90;;;;;;5050205;28;20399;-35
2022/12/14 01:46:26;;;;;;;12.10;7.80;;;0.20;99.90;;;;;;5049548;28;20417;-36
2022/12/14 01:49:00;;;;;;;10.40;9.10;;;0.10;99.90;;;;;;5050556;28;20459;-37
2022/12/14 01:51:28;;;;;;;11.10;8.90;;;0.20;99.90;;;;;;5050312;28;20475;-35
2022/12/14 01:53:55;;;;;;;13.63;8.93;;;0.20;99.90;;;;;;5050157;28;20412;-40
2022/12/14 01:56:21;;;;;;;11.00;8.37;;;0.10;99.90;;;;;;5050401;28;20420;-34
2022/12/14 01:58:47;;;;;;;11.00;8.10;;;0.10;99.90;;;;;;5050078;28;20412;-38
2022/12/14 02:01:13;;;;;;;11.40;8.43;;;0.10;99.90;;;;;;5049122;28;20259;-39
2022/12/14 02:03:48;;;;;;;11.03;8.30;;;0.20;99.90;;;;;;5050327;28;20543;-34
2022/12/14 02:06:23;;;;;;;11.07;7.40;;;0.10;99.90;;;;;;5048964;28;20525;-33
2022/12/14 02:08:51;;;;;;;9.93;7.00;;;0.10;99.90;;;;;;5049414;28;20420;-36
2022/12/14 02:11:40;;;;;;;9.87;7.60;;;0.00;99.90;;;;;;5050685;28;20577;-36
2022/12/14 02:14:06;;;;;;;10.00;7.40;;;0.20;99.90;;;;;;5049148;28;20431;-35
2022/12/14 02:16:31;;;;;;;12.43;8.47;;;0.20;99.90;;;;;;5050856;28;20433;-35
2022/12/14 02:18:57;;;;;;;12.17;7.90;;;0.20;99.90;;;;;;5049332;28;20831;-37
2022/12/14 02:21:34;;;;;;;9.87;7.40;;;0.10;99.90;;;;;;5050627;28;20182;-38
2022/12/14 02:24:23;;;;;;;11.43;7.50;;;0.20;99.90;;;;;;5050571;28;20186;-33
2022/12/14 02:26:52;;;;;;;9.90;7.47;;;0.00;99.90;;;;;;5050719;28;20420;-39
2022/12/14 02:29:58;;;;;;;10.13;8.10;;;0.20;99.90;;;;;;5050093;28;20785;-40
2022/12/14 02:32:44;;;;;;;7.73;6.70;;;0.10;99.90;;;;;;5049026;28;20577;-38
2022/12/14 02:35:12;;;;;;;12.07;7.17;;;0.10;99.90;;;;;;5050482;28;20915;-36
2022/12/14 02:38:00;;;;;;;8.90;7.20;;;0.00;99.90;;;;;;5048880;28;20923;-38
2022/12/14 02:40:25;;;;;;;10.80;7.90;;;0.00;99.90;;;;;;5050106;28;20404;-36
2022/12/14 02:43:25;;;;;;;10.13;7.67;;;-0.10;99.90;;;;;;5050064;28;20458;-37
2022/12/14 02:46:27;;;;;;;8.93;7.30;;;-0.10;99.90;;;;;;5050280;28;20185;-36
2022/12/14 02:49:00;;;;;;;12.77;8.07;;;-0.10;99.90;;;;;;5049997;28;20460;-36
2022/12/14 02:51:34;;;;;;;10.70;6.97;;;-0.10;99.90;;;;;;5050107;28;20461;-36
2022/12/14 02:54:01;;;;;;;11.00;7.63;;;0.00;99.90;;;;;;5049806;28;21011;-32
2022/12/14 02:56:34;;;;;;;10.77;7.83;;;-0.20;99.90;;;;;;5049696;28;20491;-34
2022/12/14 02:59:02;;;;;;;11.90;8.63;;;-0.10;99.90;;;;;;5049697;28;20815;-33
2022/12/14 03:01:28;;;;;;;11.83;8.00;;;-0.30;99.90;;;;;;5050218;28;20432;-32
2022/12/14 03:03:54;;;;;;;10.43;7.53;;;-0.20;99.90;;;;;;5049685;28;20413;-35
2022/12/14 03:06:27;;;;;;;10.70;7.23;;;-0.20;99.90;;;;;;5049917;28;20436;-36
2022/12/14 03:09:06;;;;;;;10.73;7.70;;;-0.10;99.90;;;;;;5048285;28;20423;-36
2022/12/14 03:11:45;;;;;;;10.63;8.13;;;-0.10;99.90;;;;;;5049849;28;20528;-35
2022/12/14 03:14:18;;;;;;;9.30;7.50;;;-0.30;99.90;;;;;;5049340;28;21051;-36
2022/12/14 03:16:46;;;;;;;12.33;8.43;;;-0.20;99.90;;;;;;5049814;28;20484;-30
2022/12/14 03:19:27;;;;;;;9.60;7.10;;;-0.30;99.90;;;;;;5049065;28;20508;-35
2022/12/14 03:21:57;;;;;;;9.47;7.07;;;-0.40;99.90;;;;;;5049772;28;20407;-35
2022/12/14 03:24:28;;;;;;;9.37;6.97;;;-0.10;99.90;;;;;;5049419;28;20451;-36
2022/12/14 03:27:10;;;;;;;9.07;6.83;;;-0.40;99.90;;;;;;5049796;28;20453;-32
2022/12/14 03:29:46;;;;;;;9.40;7.10;;;-0.10;99.90;;;;;;5048836;28;20439;-35
2022/12/14 03:32:17;;;;;;;10.70;6.87;;;-0.20;99.90;;;;;;5049465;28;20470;-34
2022/12/14 03:35:03;;;;;;;9.60;7.00;;;-0.20;99.90;;;;;;5049151;28;20481;-38
2022/12/14 03:37:44;;;;;;;9.00;6.30;;;-0.20;99.90;;;;;;5049557;28;20405;-35
2022/12/14 03:40:12;;;;;;;8.40;6.70;;;-0.20;99.90;;;;;;5048822;28;20418;-37
2022/12/14 03:43:03;;;;;;;9.50;6.97;;;-0.30;99.90;;;;;;5046387;28;20910;-37
2022/12/14 03:45:36;;;;;;;9.30;7.30;;;-0.30;99.90;;;;;;5049224;28;20459;-34
2022/12/14 03:48:35;;;;;;;9.50;6.90;;;-0.50;99.90;;;;;;5049436;28;20416;-33
2022/12/14 03:51:19;;;;;;;8.90;6.13;;;-0.10;99.90;;;;;;5042444;28;20431;-37
2022/12/14 03:53:49;;;;;;;9.63;8.33;;;-0.30;99.90;;;;;;5047532;28;20536;-36
2022/12/14 03:56:23;;;;;;;8.37;6.40;;;-0.20;99.90;;;;;;5049274;28;20436;-37
2022/12/14 03:59:13;;;;;;;9.30;7.27;;;-0.30;99.90;;;;;;5048622;28;20889;-37
2022/12/14 04:01:54;;;;;;;10.43;6.10;;;-0.30;99.90;;;;;;5049219;28;20724;-37
2022/12/14 04:04:28;;;;;;;7.97;6.00;;;-0.30;99.90;;;;;;5047222;28;20915;-36
2022/12/14 04:07:08;;;;;;;10.37;7.23;;;-0.30;99.90;;;;;;5048399;28;20493;-35
2022/12/14 04:09:48;;;;;;;11.60;7.40;;;-0.40;99.90;;;;;;5048725;28;20808;-36
2022/12/14 04:21:04;;;;;;;6.90;5.00;;;-0.10;99.90;;;;;;5048999;28;20477;-35
2022/12/14 04:26:32;;;;;;;7.30;5.70;;;-0.50;99.90;;;;;;5048964;28;20486;-32
2022/12/14 04:31:57;;;;;;;8.43;6.17;;;-0.20;99.90;;;;;;5044140;28;20538;-37
2022/12/14 04:34:27;;;;;;;9.37;6.43;;;-0.10;99.90;;;;;;5041975;28;20431;-35
2022/12/14 04:36:56;;;;;;;9.60;6.50;;;-0.20;99.90;;;;;;5040777;28;20395;-32
2022/12/14 04:39:30;;;;;;;9.03;6.23;;;-0.10;99.90;;;;;;5048373;28;20416;-32
2022/12/14 04:41:59;;;;;;;10.70;6.53;;;-0.20;99.90;;;;;;5042213;28;20443;-33
2022/12/14 04:44:36;;;;;;;9.17;6.27;;;-0.20;99.90;;;;;;5050589;28;20478;-36
2022/12/14 04:47:06;;;;;;;12.37;8.00;;;-0.10;99.90;;;;;;5048808;28;20903;-34
2022/12/14 04:49:54;;;;;;;8.20;6.10;;;-0.10;99.90;;;;;;5050836;28;20427;-38
2022/12/14 04:52:39;;;;;;;10.03;6.60;;;-0.20;99.90;;;;;;5050025;28;20780;-38
2022/12/14 04:55:39;;;;;;;8.67;6.63;;;-0.20;99.90;;;;;;5050657;28;20937;-37
2022/12/14 04:58:26;;;;;;;11.60;7.10;;;-0.30;99.90;;;;;;5048852;28;20765;-39
2022/12/14 05:01:03;;;;;;;10.50;6.30;;;-0.10;99.90;;;;;;5050805;28;20490;-38
2022/12/14 05:03:33;;;;;;;7.63;6.03;;;-0.30;99.90;;;;;;5050815;28;20420;-38
2022/12/14 05:06:02;;;;;;;10.60;7.00;;;-0.20;99.90;;;;;;5050985;28;20422;-35
2022/12/14 05:08:31;;;;;;;10.50;6.23;;;-0.30;99.90;;;;;;5049034;28;20416;-33
2022/12/14 05:11:17;;;;;;;9.00;5.90;;;-0.40;99.90;;;;;;5050735;28;20430;-36
2022/12/14 05:13:47;;;;;;;8.80;6.47;;;-0.20;99.90;;;;;;5050560;28;20427;-33
2022/12/14 05:16:19;;;;;;;9.90;6.27;;;-0.30;99.90;;;;;;5050693;28;20384;-36
2022/12/14 05:18:45;;;;;;;9.40;6.67;;;-0.50;99.90;;;;;;5050137;28;20402;-37
2022/12/14 05:21:45;;;;;;;11.20;7.23;;;-0.50;99.90;;;;;;5050584;28;20394;-34
2022/12/14 05:24:02;;;;;;;13.50;7.40;;;-0.40;99.90;;;;;;5049940;28;20181;-38
2022/12/14 05:26:29;;;;;;;10.90;7.20;;;-0.40;99.90;;;;;;5050286;28;20447;-34
2022/12/14 05:28:55;;;;;;;12.50;7.00;;;-0.30;99.90;;;;;;5049862;28;20810;-37
2022/12/14 05:31:21;;;;;;;8.17;6.33;;;-0.50;99.90;;;;;;5050486;28;20521;-38
2022/12/14 05:33:47;;;;;;;9.13;6.73;;;-0.40;99.90;;;;;;5049743;28;20395;-35
2022/12/14 05:36:13;;;;;;;11.90;7.33;;;-0.40;99.90;;;;;;5050397;28;20394;-38
2022/12/14 05:38:38;;;;;;;9.20;6.97;;;-0.50;99.90;;;;;;5049612;28;20189;-38
2022/12/14 05:41:04;;;;;;;8.80;6.10;;;-0.40;99.90;;;;;;5049833;28;20676;-37
2022/12/14 05:43:30;;;;;;;10.63;6.80;;;-0.40;99.90;;;;;;5049796;28;20194;-38
2022/12/14 05:45:59;;;;;;;9.70;7.10;;;-0.30;99.90;;;;;;5050295;28;20712;-38
2022/12/14 05:48:24;;;;;;;8.57;6.40;;;-0.30;99.90;;;;;;5049438;28;20273;-36
2022/12/14 05:50:50;;;;;;;9.03;6.10;;;-0.20;99.90;;;;;;5049964;28;20467;-38
2022/12/14 05:53:17;;;;;;;8.33;6.23;;;-0.50;99.90;;;;;;5049440;28;20673;-36
2022/12/14 05:55:50;;;;;;;9.93;5.47;;;-0.20;99.90;;;;;;5050008;28;20603;-34
2022/12/14 05:58:16;;;;;;;6.03;5.40;;;-0.20;99.90;;;;;;5047678;28;20474;-35
2022/12/14 06:00:42;;;;;;;8.07;5.23;;;-0.50;99.90;;;;;;5048780;28;20424;-33
2022/12/14 06:03:08;;;;;;;9.23;5.70;;;-0.30;99.90;;;;;;5041354;28;20806;-36
2022/12/14 06:05:34;;;;;;;8.53;6.40;;;-0.40;99.90;;;;;;5042782;28;20233;-33
2022/12/14 06:07:59;;;;;;;8.27;5.00;;;-0.50;99.90;;;;;;5039947;28;20198;-36
2022/12/14 06:10:25;;;;;;;7.83;5.40;;;-0.40;99.90;;;;;;5047710;28;20221;-36
2022/12/14 06:12:51;;;;;;;8.30;5.70;;;-0.30;99.90;;;;;;5049291;28;20181;-32
2022/12/14 06:15:16;;;;;;;7.83;5.63;;;-0.30;99.90;;;;;;5047799;28;20186;-36
2022/12/14 06:17:43;;;;;;;8.03;5.90;;;-0.50;99.90;;;;;;5049403;28;20656;-38
2022/12/14 06:20:10;;;;;;;9.03;5.60;;;-0.10;99.90;;;;;;5049102;28;20548;-35
2022/12/14 06:22:35;;;;;;;10.27;6.33;;;-0.20;99.90;;;;;;5047610;28;20424;-36
2022/12/14 06:25:01;;;;;;;8.57;6.30;;;-0.20;99.90;;;;;;5047708;28;20413;-37
2022/12/14 06:27:27;;;;;;;6.50;5.70;;;-0.30;99.90;;;;;;5049200;28;20189;-33
2022/12/14 06:29:52;;;;;;;9.03;5.47;;;-0.40;99.90;;;;;;5047391;28;20807;-35
2022/12/14 06:32:18;;;;;;;8.20;5.77;;;-0.30;99.90;;;;;;5048916;28;20200;-35
2022/12/14 06:34:44;;;;;;;7.93;5.57;;;-0.20;99.90;;;;;;5045771;28;20663;-35
2022/12/14 06:37:10;;;;;;;10.63;6.30;;;-0.40;99.90;;;;;;5048911;28;20205;-36
2022/12/14 06:39:36;;;;;;;9.53;5.40;;;-0.40;99.90;;;;;;5046917;28;20412;-37
2022/12/14 06:42:02;;;;;;;8.37;6.10;;;-0.70;99.90;;;;;;5048803;28;20923;-32
2022/12/14 06:44:27;;;;;;;10.60;6.50;;;-0.70;99.90;;;;;;5048364;28;20202;-37
2022/12/14 06:46:54;;;;;;;9.10;6.03;;;-0.30;99.90;;;;;;5047152;28;20472;-37
2022/12/14 06:49:20;;;;;;;10.90;6.73;;;-0.20;99.90;;;;;;5048267;28;20320;-38
2022/12/14 06:51:46;;;;;;;9.97;6.50;;;-0.30;99.90;;;;;;5047985;28;20448;-38
2022/12/14 06:54:13;;;;;;;7.57;6.10;;;-0.30;99.90;;;;;;5038436;28;20764;-38
2022/12/14 06:56:39;;;;;;;9.60;6.90;;;-0.50;99.90;;;;;;5035443;28;20771;-35
2022/12/14 06:59:07;;;;;;;10.33;7.13;;;-0.30;99.90;;;;;;5037059;28;20631;-37
2022/12/14 07:01:34;;;;;;;12.60;7.83;;;-0.40;99.90;;;;;;5037476;28;20408;-37
2022/12/14 07:03:59;;;;;;;10.23;7.30;;;-0.50;99.90;;;;;;5039781;28;20751;-39
2022/12/14 07:06:30;;;;;;;12.87;6.97;;;-0.30;99.90;;;;;;5047160;28;20430;-33
2022/12/14 07:08:57;;;;;;;12.53;7.67;;;-0.40;99.90;;;;;;5046330;28;20189;-34
2022/12/14 07:11:24;;;;;;;13.10;6.90;;;-0.30;99.90;;;;;;5047986;28;20759;-35
2022/12/14 07:13:50;;;;;;;12.97;7.87;;;-0.40;99.90;;;;;;5047554;28;20408;-37
2022/12/14 07:16:19;;;;;;;7.80;6.30;;;-0.20;99.90;;;;;;5042667;28;20443;-36
2022/12/14 07:18:45;;;;;;;10.33;7.43;;;-0.30;99.90;;;;;;5042865;28;20185;-33
2022/12/14 07:21:13;;;;;;;9.53;6.03;;;-0.40;99.90;;;;;;5044717;28;20824;-36
2022/12/14 07:23:40;;;;;;;10.17;6.80;;;-0.20;99.90;;;;;;5047216;28;20452;-33
2022/12/14 07:26:12;;;;;;;8.07;5.83;;;-0.20;99.90;;;;;;5039446;28;20491;-35
2022/12/14 07:28:39;;;;;;;7.37;5.83;;;-0.20;99.90;;;;;;5045731;28;20452;-38
2022/12/14 07:31:17;;;;;;;6.57;5.20;;;-0.10;99.90;;;;;;5049012;28;20426;-36
2022/12/14 07:33:42;;;;;;;7.50;5.60;;;-0.20;99.90;;;;;;5048188;28;20865;-39
2022/12/14 07:36:14;;;;;;;9.10;6.23;;;-0.20;99.90;;;;;;5048061;28;20919;-35
2022/12/14 07:38:42;;;;;;;8.90;6.00;;;-0.10;99.90;;;;;;5047958;28;20260;-35
2022/12/14 07:41:17;;;;;;;8.07;6.10;;;-0.30;99.90;;;;;;5048075;28;20427;-35
2022/12/14 07:43:43;;;;;;;7.17;5.53;;;-0.50;99.90;;;;;;5047611;28;20505;-37
2022/12/14 07:46:12;;;;;;;6.73;5.10;;;-0.10;99.90;;;;;;5047792;28;20448;-34
2022/12/14 07:48:38;;;;;;;7.30;5.10;;;-0.30;99.90;;;;;;5047556;28;20761;-35
2022/12/14 07:51:09;;;;;;;7.60;5.80;;;-0.40;99.90;;;;;;5046373;28;20471;-39
2022/12/14 07:53:36;;;;;;;10.83;7.00;;;-0.10;99.90;;;;;;5047571;28;20797;-37
2022/12/14 07:56:05;;;;;;;9.67;5.93;;;-0.20;99.90;;;;;;5046258;28;20420;-36
2022/12/14 07:58:32;;;;;;;14.63;7.00;;;-0.10;99.90;;;;;;5047194;28;20500;-39
2022/12/14 08:01:21;;;;;;;8.97;6.10;;;-0.30;99.90;;;;;;5047938;28;20424;-36
2022/12/14 08:03:58;;;;;;;10.20;7.77;;;-0.20;99.90;;;;;;5047318;28;20417;-36
2022/12/14 08:06:26;;;;;;;12.13;7.50;;;-0.30;99.90;;;;;;5048191;28;20797;-36
2022/12/14 08:08:52;;;;;;;10.43;6.57;;;-0.30;99.90;;;;;;5045586;28;20420;-35
2022/12/14 08:11:21;;;;;;;10.93;7.47;;;-0.10;99.90;;;;;;5047725;28;20453;-37
2022/12/14 08:13:46;;;;;;;8.20;6.20;;;-0.30;99.90;;;;;;5047183;28;20807;-38
2022/12/14 08:16:15;;;;;;;11.93;6.87;;;-0.10;99.90;;;;;;5047836;28;20422;-39
2022/12/14 08:18:41;;;;;;;13.80;6.60;;;-0.20;99.90;;;;;;5049953;28;20408;-36
2022/12/14 08:21:09;;;;;;;9.77;6.50;;;0.00;99.90;;;;;;5051785;28;20430;-35
2022/12/14 08:23:36;;;;;;;9.47;6.33;;;-0.30;99.90;;;;;;5050997;28;20422;-36
2022/12/14 08:26:03;;;;;;;10.50;6.50;;;-0.10;99.90;;;;;;5051729;28;20420;-39
2022/12/14 08:28:30;;;;;;;13.53;7.13;;;-0.20;99.90;;;;;;5050951;28;20458;-36
2022/12/14 08:30:57;;;;;;;14.43;7.00;;;-0.40;99.90;;;;;;5051412;28;20491;-36
2022/12/14 08:33:23;;;;;;;7.80;6.37;;;-0.10;99.90;;;;;;5051153;28;20915;-37
2022/12/14 08:35:48;;;;;;;10.43;7.03;;;0.00;99.90;;;;;;5051482;28;20407;-38
2022/12/14 08:38:14;;;;;;;9.03;6.47;;;-0.30;99.90;;;;;;5051167;28;20185;-37
2022/12/14 08:40:40;;;;;;;11.37;6.67;;;0.00;99.90;;;;;;5050735;28;20188;-33
2022/12/14 08:43:07;;;;;;;11.57;7.70;;;0.10;99.90;;;;;;5050944;28;20410;-37
2022/12/14 08:45:34;;;;;;;12.50;8.23;;;-0.10;99.90;;;;;;5051201;28;20482;-37
2022/12/14 08:48:00;;;;;;;11.83;7.13;;;-0.10;99.90;;;;;;5051542;28;20571;-37
2022/12/14 08:50:28;;;;;;;11.67;7.23;;;0.00;99.90;;;;;;5050541;28;20556;-36
2022/12/14 08:52:54;;;;;;;12.63;7.43;;;-0.20;99.90;;;;;;5050783;28;20477;-35
2022/12/14 08:55:20;;;;;;;11.00;7.40;;;-0.20;99.90;;;;;;5051025;28;20462;-35
2022/12/14 08:57:46;;;;;;;11.40;7.97;;;0.00;99.90;;;;;;5051109;28;20470;-38
2022/12/14 09:00:12;;;;;;;13.97;8.47;;;0.10;99.90;;;;;;5050528;28;20424;-32
2022/12/14 09:02:38;;;;;;;13.87;8.67;;;-0.10;99.90;;;;;;5050664;28;20391;-36
2022/12/14 09:05:04;;;;;;;12.70;8.40;;;-0.10;99.90;;;;;;5050412;28;20489;-31
2022/12/14 09:07:31;;;;;;;12.43;8.40;;;0.00;99.90;;;;;;5049303;28;20178;-34
2022/12/14 09:09:57;;;;;;;12.90;8.20;;;0.10;99.90;;;;;;5050661;28;20412;-32
2022/12/14 09:12:23;;;;;;;13.37;7.97;;;-0.10;99.90;;;;;;5050482;28;20498;-33
2022/12/14 09:14:49;;;;;;;20.33;8.47;;;-0.10;99.90;;;;;;5050549;28;20411;-34
2022/12/14 09:17:16;;;;;;;11.10;8.43;;;0.00;99.90;;;;;;5050542;28;20431;-32
2022/12/14 09:19:42;;;;;;;14.17;8.10;;;-0.10;99.90;;;;;;5050009;28;20895;-34
2022/12/14 09:22:08;;;;;;;16.00;9.50;;;0.20;99.90;;;;;;5049112;28;20534;-31
2022/12/14 09:24:34;;;;;;;12.90;8.90;;;0.20;99.90;;;;;;5050339;28;20429;-33
2022/12/14 09:27:00;;;;;;;19.00;10.03;;;0.10;99.90;;;;;;5050344;28;20412;-33
2022/12/14 09:29:27;;;;;;;15.17;9.10;;;0.10;99.90;;;;;;5049472;28;20443;-37
2022/12/14 09:31:53;;;;;;;15.97;9.97;;;0.10;99.90;;;;;;5050313;28;20716;-38
2022/12/14 09:34:20;;;;;;;15.83;9.73;;;0.20;99.90;;;;;;5049935;28;20408;-33
2022/12/14 09:36:45;;;;;;;16.63;10.40;;;0.00;99.90;;;;;;5050600;28;20412;-38
2022/12/14 09:39:13;;;;;;;11.83;9.63;;;0.00;99.90;;;;;;5049893;28;20974;-33
2022/12/14 09:42:01;;;;;;;13.97;9.67;;;0.20;99.90;;;;;;5050349;28;20559;-33
2022/12/14 09:45:01;;;;;;;12.63;9.20;;;0.10;99.90;;;;;;5049800;28;20424;-37
2022/12/14 09:47:50;;;;;;;12.43;8.77;;;0.10;99.90;;;;;;5046334;28;20417;-36
2022/12/14 09:50:19;;;;;;;17.53;9.77;;;0.10;99.90;;;;;;5045244;28;20467;-35
2022/12/14 09:53:06;;;;;;;12.77;9.00;;;0.30;99.90;;;;;;5049656;28;20403;-36
2022/12/14 09:55:42;;;;;;;11.50;9.27;;;0.40;99.90;;;;;;5050015;28;20485;-38
2022/12/14 09:58:24;;;;;;;11.07;8.73;;;0.30;99.90;;;;;;5050059;28;20519;-37
2022/12/14 10:01:13;;;;;;;14.20;9.00;;;0.30;99.90;;;;;;5049888;28;20445;-36
2022/12/14 10:04:06;;;;;;;15.40;9.77;;;0.40;99.90;;;;;;5049508;28;20954;-35
2022/12/14 10:06:40;;;;;;;16.43;10.60;;;0.20;99.90;;;;;;5050045;28;20405;-38
2022/12/14 10:09:12;;;;;;;18.83;9.87;;;0.40;99.90;;;;;;5047809;28;20465;-35
2022/12/14 10:11:58;;;;;;;19.97;11.13;;;0.30;99.90;;;;;;5049478;28;20476;-37
2022/12/14 10:15:00;;;;;;;19.03;10.20;;;0.40;99.90;;;;;;5049318;28;20391;-38
2022/12/14 10:17:29;;;;;;;14.07;10.30;;;0.50;99.90;;;;;;5050085;28;20820;-33
2022/12/14 10:19:57;;;;;;;14.53;9.40;;;0.30;99.90;;;;;;5048996;28;20801;-33
2022/12/14 10:22:41;;;;;;;14.73;9.67;;;0.60;99.90;;;;;;5049224;28;20471;-36
2022/12/14 10:25:23;;;;;;;14.73;8.97;;;0.40;99.90;;;;;;5049319;28;20427;-36
2022/12/14 10:28:12;;;;;;;18.73;9.53;;;0.40;99.90;;;;;;5049528;28;20421;-39
2022/12/14 10:30:41;;;;;;;14.77;9.00;;;0.50;99.90;;;;;;5048567;28;20988;-33
2022/12/14 10:33:28;;;;;;;16.23;8.60;;;0.60;99.90;;;;;;5047780;28;20894;-34
2022/12/14 10:35:58;;;;;;;14.07;9.10;;;0.60;99.90;;;;;;5049205;28;20487;-40
2022/12/14 10:38:33;;;;;;;13.97;9.23;;;0.50;99.90;;;;;;5048752;28;20403;-37
2022/12/14 10:41:07;;;;;;;13.47;9.47;;;0.60;99.90;;;;;;5047792;28;20396;-35
2022/12/14 10:43:38;;;;;;;15.63;9.27;;;0.40;99.90;;;;;;5038614;28;20444;-39
2022/12/14 10:46:19;;;;;;;16.40;10.50;;;0.40;99.90;;;;;;5028906;28;21030;-38
2022/12/14 10:49:15;;;;;;;17.60;9.70;;;0.50;99.90;;;;;;5028720;28;20935;-33
2022/12/14 10:51:46;;;;;;;15.27;10.53;;;0.40;99.90;;;;;;5040854;28;20467;-38
2022/12/14 10:54:37;;;;;;;12.20;9.50;;;0.50;99.90;;;;;;5048870;28;20408;-34
2022/12/14 10:57:03;;;;;;;14.77;10.10;;;0.70;99.90;;;;;;5048684;28;20503;-36
2022/12/14 10:59:33;;;;;;;18.70;11.03;;;0.70;99.90;;;;;;5048368;28;20606;-33
2022/12/14 11:02:17;;;;;;;16.50;11.20;;;0.80;99.90;;;;;;5048435;28;20412;-36
2022/12/14 11:04:59;;;;;;;17.57;12.37;;;0.70;99.90;;;;;;5040006;28;20527;-37
2022/12/14 11:07:35;;;;;;;16.30;10.63;;;0.90;99.90;;;;;;5033277;28;20429;-38
2022/12/14 11:10:22;;;;;;;16.90;9.97;;;0.70;99.90;;;;;;5030682;28;20431;-35
2022/12/14 11:13:11;;;;;;;15.83;9.80;;;0.70;99.90;;;;;;5037387;28;20402;-36
2022/12/14 11:15:40;;;;;;;17.33;9.40;;;0.90;99.90;;;;;;5029807;28;20428;-31
2022/12/14 11:18:27;;;;;;;18.13;9.80;;;0.90;99.90;;;;;;5036907;28;20423;-33
2022/12/14 11:20:56;;;;;;;15.57;9.07;;;1.00;99.90;;;;;;5048504;28;20933;-35
2022/12/14 11:23:34;;;;;;;13.30;9.70;;;0.80;99.90;;;;;;5048132;28;20404;-35
2022/12/14 11:26:02;;;;;;;14.07;10.20;;;0.90;99.90;;;;;;5048391;28;20418;-35
2022/12/14 11:28:49;;;;;;;12.90;8.40;;;1.20;99.90;;;;;;5048031;28;20420;-36
2022/12/14 11:31:30;;;;;;;14.80;8.50;;;1.10;99.90;;;;;;5048510;28;20852;-36
2022/12/14 11:33:57;;;;;;;10.33;8.20;;;1.10;99.90;;;;;;5047577;28;20411;-38
2022/12/14 11:36:43;;;;;;;12.23;8.30;;;1.10;99.90;;;;;;5048162;28;20814;-37
2022/12/14 11:39:12;;;;;;;21.23;8.30;;;0.90;99.90;;;;;;5047171;28;20420;-36
2022/12/14 11:41:43;;;;;;;10.27;8.47;;;0.90;99.90;;;;;;5048391;28;20416;-35
2022/12/14 11:44:15;;;;;;;13.30;8.43;;;1.10;99.90;;;;;;5047725;28;20822;-35
2022/12/14 11:46:46;;;;;;;12.10;7.77;;;1.10;99.90;;;;;;5044942;28;20456;-36
2022/12/14 11:49:41;;;;;;;13.60;9.00;;;0.90;99.90;;;;;;5029367;28;20508;-36
2022/12/14 11:52:18;;;;;;;14.63;7.57;;;1.10;99.90;;;;;;5047470;28;20495;-34
2022/12/14 11:54:53;;;;;;;11.80;7.50;;;1.20;99.90;;;;;;5047729;28;20894;-35
2022/12/14 11:57:40;;;;;;;11.57;8.20;;;1.30;99.90;;;;;;5047818;28;20495;-36
2022/12/14 12:00:24;;;;;;;9.07;7.13;;;1.10;99.90;;;;;;5047209;28;20501;-38
2022/12/14 12:03:01;;;;;;;10.83;7.70;;;1.30;99.90;;;;;;5047601;28;20793;-35
2022/12/14 12:05:30;;;;;;;10.40;6.67;;;1.30;99.90;;;;;;5047624;28;20778;-37
2022/12/14 12:07:58;;;;;;;9.90;7.17;;;1.30;99.90;;;;;;5046088;28;20550;-40
2022/12/14 12:10:42;;;;;;;10.13;6.93;;;1.20;99.90;;;;;;5047794;28;20517;-36
2022/12/14 12:13:22;;;;;;;9.60;7.87;;;1.40;99.90;;;;;;5047363;28;20761;-38
2022/12/14 12:16:05;;;;;;;10.87;7.30;;;1.40;99.90;;;;;;5047803;28;20466;-36
2022/12/14 12:18:36;;;;;;;10.00;7.10;;;1.60;99.90;;;;;;5047300;28;20510;-35
2022/12/14 12:21:11;;;;;;;9.43;7.40;;;1.60;99.90;;;;;;5047966;28;20907;-37
2022/12/14 12:23:50;;;;;;;8.20;6.73;;;1.60;99.90;;;;;;5047711;28;20425;-39
2022/12/14 12:26:27;;;;;;;9.77;7.47;;;1.50;99.90;;;;;;5047428;28;20467;-37
2022/12/14 12:29:12;;;;;;;10.47;8.03;;;1.80;99.90;;;;;;5047433;28;20442;-37
2022/12/14 12:31:45;;;;;;;11.00;8.00;;;1.60;99.90;;;;;;5041135;28;20461;-35
2022/12/14 12:34:18;;;;;;;10.70;8.80;;;1.80;99.90;;;;;;5026182;28;20996;-37
2022/12/14 12:36:46;;;;;;;8.97;7.33;;;1.90;99.90;;;;;;5027826;28;20416;-38
2022/12/14 12:39:15;;;;;;;11.20;7.97;;;1.80;99.90;;;;;;5031809;28;20823;-38
2022/12/14 12:42:13;;;;;;;11.00;7.77;;;2.00;99.90;;;;;;5038430;28;20432;-36
2022/12/14 12:44:51;;;;;;;12.43;8.40;;;1.70;99.90;;;;;;5045458;28;20420;-30
2022/12/14 12:47:28;;;;;;;12.77;10.53;;;1.90;99.90;;;;;;5040760;28;20470;-37
2022/12/14 12:50:00;;;;;;;17.37;8.97;;;1.80;99.90;;;;;;5035236;28;20421;-38
2022/12/14 12:52:35;;;;;;;10.50;7.70;;;1.90;99.90;;;;;;5036197;28;20559;-34
2022/12/14 12:55:08;;;;;;;11.20;7.40;;;1.80;99.90;;;;;;5034374;28;20415;-40
2022/12/14 12:57:40;;;;;;;10.70;8.43;;;1.80;99.90;;;;;;5044033;28;20452;-33
2022/12/14 13:00:13;;;;;;;11.13;8.30;;;1.70;99.90;;;;;;5046840;28;20412;-34
2022/12/14 13:02:46;;;;;;;12.10;8.73;;;1.70;99.90;;;;;;5046858;28;20515;-37
2022/12/14 13:05:15;;;;;;;10.00;7.70;;;1.80;99.90;;;;;;5050260;28;20427;-35
2022/12/14 13:08:01;;;;;;;10.80;8.40;;;1.60;99.90;;;;;;5049719;28;20402;-35
2022/12/14 13:10:48;;;;;;;11.10;8.37;;;1.60;99.90;;;;;;5050370;28;20470;-38
2022/12/14 13:13:19;;;;;;;9.13;7.77;;;1.80;99.90;;;;;;5050487;28;20543;-37
2022/12/14 13:15:49;;;;;;;11.50;9.03;;;1.60;99.90;;;;;;5050692;28;20404;-36
2022/12/14 13:18:24;;;;;;;13.07;9.03;;;1.70;99.90;;;;;;5044412;28;20794;-31
2022/12/14 13:20:51;;;;;;;11.33;8.20;;;1.80;99.90;;;;;;5041049;28;20463;-35
2022/12/14 13:23:26;;;;;;;10.03;7.87;;;1.70;99.90;;;;;;5047022;28;20428;-37
2022/12/14 13:26:46;;;;;;;10.10;8.60;;;1.80;99.90;;;;;;5038939;28;20423;-35